createdAt,value
2019-05-11T00:00:37.192Z,0.00
2019-05-11T00:01:37.177Z,0.00
2019-05-11T00:02:37.169Z,0.00
2019-05-11T00:03:37.185Z,0.00
2019-05-11T00:04:37.145Z,0.00
2019-05-11T00:05:37.135Z,0.00
2019-05-11T00:06:37.124Z,0.00
2019-05-11T00:07:37.117Z,0.00
2019-05-11T00:08:37.106Z,0.00
2019-05-11T00:09:37.113Z,0.00
2019-05-11T00:10:37.081Z,0.00
2019-05-11T00:11:37.075Z,0.00
2019-05-11T00:12:37.062Z,0.00
2019-05-11T00:13:37.052Z,0.00
2019-05-11T00:14:37.052Z,0.00
2019-05-11T00:15:37.042Z,0.00
2019-05-11T00:16:37.017Z,0.00
2019-05-11T00:17:37.010Z,0.00
2019-05-11T00:18:37.000Z,0.00
2019-05-11T00:19:36.993Z,0.00
2019-05-11T00:20:36.973Z,0.00
2019-05-11T00:21:36.971Z,0.00
2019-05-11T00:22:36.958Z,0.00
2019-05-11T00:23:36.949Z,0.00
2019-05-11T00:24:36.945Z,0.00
2019-05-11T00:25:36.924Z,0.00
2019-05-11T00:26:36.928Z,0.00
2019-05-11T00:27:36.912Z,0.00
2019-05-11T00:28:36.892Z,0.00
2019-05-11T00:29:36.878Z,0.00
2019-05-11T00:30:36.867Z,0.00
2019-05-11T00:31:36.857Z,0.00
2019-05-11T00:32:36.915Z,0.00
2019-05-11T00:33:36.839Z,0.00
2019-05-11T00:34:36.829Z,0.00
2019-05-11T00:35:36.818Z,0.00
2019-05-11T00:36:36.817Z,0.00
2019-05-11T00:37:36.810Z,0.00
2019-05-11T00:38:36.782Z,0.00
2019-05-11T00:39:36.778Z,0.00
2019-05-11T00:40:36.770Z,0.00
2019-05-11T00:41:36.757Z,0.00
2019-05-11T00:42:36.745Z,0.00
2019-05-11T00:43:36.738Z,0.00
2019-05-11T00:44:36.723Z,0.00
2019-05-11T00:45:36.737Z,0.00
2019-05-11T00:46:36.696Z,0.00
2019-05-11T00:47:36.692Z,0.00
2019-05-11T00:48:36.681Z,0.00
2019-05-11T00:49:36.666Z,0.00
2019-05-11T00:50:39.100Z,0.00
2019-05-11T00:51:36.726Z,0.00
2019-05-11T00:52:36.636Z,0.00
2019-05-11T00:53:36.621Z,0.00
2019-05-11T00:54:36.626Z,0.00
2019-05-11T00:55:36.610Z,0.00
2019-05-11T00:56:36.604Z,0.00
2019-05-11T00:57:36.586Z,0.00
2019-05-11T00:58:36.568Z,0.00
2019-05-11T00:59:36.558Z,0.00
2019-05-11T01:00:36.571Z,0.00
2019-05-11T01:01:36.539Z,0.00
2019-05-11T01:02:36.540Z,0.00
2019-05-11T01:03:36.514Z,0.00
2019-05-11T01:04:36.503Z,0.00
2019-05-11T01:05:36.508Z,0.00
2019-05-11T01:06:36.511Z,0.00
2019-05-11T01:07:36.482Z,0.00
2019-05-11T01:08:36.487Z,0.00
2019-05-11T01:09:36.449Z,0.00
2019-05-11T01:10:42.084Z,0.00
2019-05-11T01:11:37.437Z,0.00
2019-05-11T01:12:36.418Z,0.00
2019-05-11T01:13:36.410Z,0.00
2019-05-11T01:14:36.422Z,0.00
2019-05-11T01:15:36.397Z,0.00
2019-05-11T01:16:36.379Z,0.00
2019-05-11T01:17:36.364Z,0.00
2019-05-11T01:18:36.359Z,0.00
2019-05-11T01:19:36.351Z,0.00
2019-05-11T01:20:36.341Z,0.00
2019-05-11T01:21:36.324Z,0.00
2019-05-11T01:22:36.319Z,0.00
2019-05-11T01:23:36.310Z,0.00
2019-05-11T01:24:36.289Z,0.00
2019-05-11T01:25:36.296Z,0.00
2019-05-11T01:26:36.270Z,0.00
2019-05-11T01:27:36.261Z,0.00
2019-05-11T01:28:36.245Z,0.00
2019-05-11T01:29:36.274Z,0.00
2019-05-11T01:30:38.756Z,0.00
2019-05-11T01:31:36.227Z,0.00
2019-05-11T01:32:36.230Z,0.00
2019-05-11T01:33:36.198Z,0.00
2019-05-11T01:34:36.215Z,0.00
2019-05-11T01:35:36.172Z,0.00
2019-05-11T01:36:36.169Z,0.00
2019-05-11T01:37:36.159Z,0.00
2019-05-11T01:38:36.140Z,0.00
2019-05-11T01:39:36.138Z,0.00
2019-05-11T01:40:36.120Z,0.00
2019-05-11T01:41:36.157Z,0.00
2019-05-11T01:42:36.098Z,0.00
2019-05-11T01:43:36.089Z,0.00
2019-05-11T01:44:36.084Z,0.00
2019-05-11T01:45:36.071Z,0.00
2019-05-11T01:46:36.060Z,0.00
2019-05-11T01:47:36.052Z,0.00
2019-05-11T01:48:36.035Z,0.00
2019-05-11T01:49:36.024Z,0.00
2019-05-11T01:50:36.018Z,0.00
2019-05-11T01:51:36.008Z,0.00
2019-05-11T01:52:36.006Z,0.00
2019-05-11T01:53:36.023Z,0.00
2019-05-11T01:54:35.980Z,0.00
2019-05-11T01:55:35.969Z,0.00
2019-05-11T01:56:35.949Z,0.00
2019-05-11T01:57:35.959Z,0.00
2019-05-11T01:58:35.934Z,0.00
2019-05-11T01:59:35.918Z,0.00
2019-05-11T02:00:35.917Z,0.00
2019-05-11T02:01:35.902Z,0.00
2019-05-11T02:02:35.893Z,0.00
2019-05-11T02:03:35.931Z,0.00
2019-05-11T02:04:35.870Z,0.00
2019-05-11T02:05:35.864Z,0.00
2019-05-11T02:06:35.843Z,0.00
2019-05-11T02:07:35.835Z,0.00
2019-05-11T02:08:35.825Z,0.00
2019-05-11T02:09:35.819Z,0.00
2019-05-11T02:10:35.799Z,0.00
2019-05-11T02:11:35.789Z,0.00
2019-05-11T02:12:43.450Z,0.00
2019-05-11T02:13:35.788Z,0.00
2019-05-11T02:14:35.769Z,0.00
2019-05-11T02:15:35.752Z,0.00
2019-05-11T02:16:35.742Z,0.00
2019-05-11T02:17:35.723Z,0.00
2019-05-11T02:18:35.735Z,0.00
2019-05-11T02:19:35.735Z,0.00
2019-05-11T02:20:35.695Z,0.00
2019-05-11T02:21:35.681Z,0.00
2019-05-11T02:22:35.672Z,0.00
2019-05-11T02:23:35.674Z,0.00
2019-05-11T02:24:35.663Z,0.00
2019-05-11T02:25:35.644Z,0.00
2019-05-11T02:26:35.628Z,0.00
2019-05-11T02:27:35.616Z,0.00
2019-05-11T02:28:35.611Z,0.00
2019-05-11T02:29:35.623Z,0.00
2019-05-11T02:30:35.589Z,0.00
2019-05-11T02:31:35.585Z,0.00
2019-05-11T02:32:35.567Z,0.00
2019-05-11T02:33:35.557Z,0.00
2019-05-11T02:34:35.549Z,0.00
2019-05-11T02:35:35.549Z,0.00
2019-05-11T02:36:35.526Z,0.00
2019-05-11T02:37:35.509Z,0.00
2019-05-11T02:38:35.514Z,0.00
2019-05-11T02:39:35.495Z,0.00
2019-05-11T02:40:35.494Z,0.00
2019-05-11T02:41:37.455Z,0.00
2019-05-11T02:42:35.468Z,0.00
2019-05-11T02:43:35.444Z,0.00
2019-05-11T02:44:35.435Z,0.00
2019-05-11T02:45:35.434Z,0.00
2019-05-11T02:46:35.437Z,4.00
2019-05-11T02:47:35.402Z,4.00
2019-05-11T02:48:35.402Z,0.00
2019-05-11T02:49:35.386Z,0.00
2019-05-11T02:50:35.375Z,4.00
2019-05-11T02:51:35.407Z,4.00
2019-05-11T02:52:35.355Z,4.00
2019-05-11T02:53:35.337Z,4.00
2019-05-11T02:54:35.342Z,4.00
2019-05-11T02:55:35.316Z,4.00
2019-05-11T02:56:35.310Z,4.00
2019-05-11T02:57:35.334Z,8.00
2019-05-11T02:58:35.295Z,8.00
2019-05-11T02:59:35.291Z,8.00
2019-05-11T03:00:35.267Z,8.00
2019-05-11T03:01:35.257Z,12.00
2019-05-11T03:02:35.276Z,12.00
2019-05-11T03:03:35.242Z,12.00
2019-05-11T03:04:35.227Z,16.00
2019-05-11T03:05:35.215Z,16.00
2019-05-11T03:06:35.199Z,20.00
2019-05-11T03:07:35.195Z,24.00
2019-05-11T03:08:35.198Z,24.00
2019-05-11T03:09:35.172Z,24.00
2019-05-11T03:10:35.162Z,28.00
2019-05-11T03:11:52.802Z,36.00
2019-05-11T03:12:36.133Z,40.00
2019-05-11T03:13:35.136Z,40.00
2019-05-11T03:14:35.114Z,48.00
2019-05-11T03:15:35.104Z,52.00
2019-05-11T03:16:35.116Z,56.00
2019-05-11T03:17:35.094Z,60.00
2019-05-11T03:18:35.118Z,68.00
2019-05-11T03:19:35.064Z,72.00
2019-05-11T03:20:35.061Z,76.00
2019-05-11T03:21:35.041Z,84.00
2019-05-11T03:22:35.037Z,92.00
2019-05-11T03:23:35.015Z,96.00
2019-05-11T03:24:35.053Z,100.00
2019-05-11T03:25:35.002Z,108.00
2019-05-11T03:26:34.990Z,116.00
2019-05-11T03:27:34.974Z,124.00
2019-05-11T03:28:34.968Z,132.00
2019-05-11T03:29:34.964Z,140.00
2019-05-11T03:30:34.951Z,152.00
2019-05-11T03:31:34.937Z,156.00
2019-05-11T03:32:34.925Z,156.00
2019-05-11T03:33:34.929Z,160.00
2019-05-11T03:34:34.918Z,160.00
2019-05-11T03:35:35.083Z,160.00
2019-05-11T03:36:34.881Z,156.00
2019-05-11T03:37:34.869Z,160.00
2019-05-11T03:38:34.924Z,172.00
2019-05-11T03:39:34.856Z,192.00
2019-05-11T03:40:34.841Z,204.00
2019-05-11T03:41:34.832Z,220.00
2019-05-11T03:42:34.817Z,236.00
2019-05-11T03:43:34.808Z,264.00
2019-05-11T03:44:34.798Z,284.00
2019-05-11T03:45:34.799Z,292.00
2019-05-11T03:46:34.803Z,272.00
2019-05-11T03:47:34.760Z,236.00
2019-05-11T03:48:34.748Z,224.00
2019-05-11T03:49:34.741Z,216.00
2019-05-11T03:50:34.731Z,220.00
2019-05-11T03:51:34.738Z,228.00
2019-05-11T03:52:34.715Z,236.00
2019-05-11T03:53:34.694Z,252.00
2019-05-11T03:54:34.685Z,280.00
2019-05-11T03:55:34.675Z,300.00
2019-05-11T03:56:34.698Z,308.00
2019-05-11T03:57:34.672Z,308.00
2019-05-11T03:58:34.644Z,308.00
2019-05-11T03:59:34.635Z,308.00
2019-05-11T04:00:34.619Z,316.00
2019-05-11T04:01:34.613Z,320.00
2019-05-11T04:02:34.611Z,316.00
2019-05-11T04:03:34.591Z,320.00
2019-05-11T04:04:34.576Z,332.00
2019-05-11T04:05:34.566Z,340.00
2019-05-11T04:06:34.560Z,352.00
2019-05-11T04:07:34.562Z,364.00
2019-05-11T04:08:34.547Z,384.00
2019-05-11T04:09:34.523Z,400.00
2019-05-11T04:10:34.516Z,416.00
2019-05-11T04:11:34.503Z,424.00
2019-05-11T04:12:35.609Z,432.00
2019-05-11T04:13:34.488Z,428.00
2019-05-11T04:14:34.484Z,436.00
2019-05-11T04:15:34.467Z,440.00
2019-05-11T04:16:34.453Z,452.00
2019-05-11T04:17:34.445Z,476.00
2019-05-11T04:18:34.441Z,508.00
2019-05-11T04:19:34.422Z,548.00
2019-05-11T04:20:34.439Z,588.00
2019-05-11T04:21:34.402Z,640.00
2019-05-11T04:22:34.416Z,712.00
2019-05-11T04:23:34.373Z,792.00
2019-05-11T04:24:34.368Z,876.00
2019-05-11T04:25:34.353Z,984.00
2019-05-11T04:26:34.368Z,1100.00
2019-05-11T04:27:34.337Z,1240.00
2019-05-11T04:28:34.322Z,1404.00
2019-05-11T04:29:34.318Z,1516.00
2019-05-11T04:30:34.326Z,1572.00
2019-05-11T04:31:34.291Z,1624.00
2019-05-11T04:32:34.282Z,1676.00
2019-05-11T04:33:34.272Z,1712.00
2019-05-11T04:34:34.256Z,1692.00
2019-05-11T04:35:34.266Z,1604.00
2019-05-11T04:36:34.241Z,1508.00
2019-05-11T04:37:34.224Z,1436.00
2019-05-11T04:38:34.222Z,1356.00
2019-05-11T04:39:34.206Z,1280.00
2019-05-11T04:40:34.207Z,1212.00
2019-05-11T04:41:34.194Z,1164.00
2019-05-11T04:42:52.857Z,1112.00
2019-05-11T04:43:35.161Z,1076.00
2019-05-11T04:44:34.150Z,1044.00
2019-05-11T04:45:34.139Z,1020.00
2019-05-11T04:46:34.147Z,1004.00
2019-05-11T04:47:34.126Z,1000.00
2019-05-11T04:48:34.115Z,1000.00
2019-05-11T04:49:34.109Z,1012.00
2019-05-11T04:50:34.084Z,1032.00
2019-05-11T04:51:34.102Z,1052.00
2019-05-11T04:52:34.066Z,1072.00
2019-05-11T04:53:34.063Z,1084.00
2019-05-11T04:54:34.050Z,1108.00
2019-05-11T04:55:34.044Z,1152.00
2019-05-11T04:56:34.024Z,1236.00
2019-05-11T04:57:34.026Z,1336.00
2019-05-11T04:58:34.006Z,1436.00
2019-05-11T04:59:33.994Z,1528.00
2019-05-11T05:00:33.989Z,1560.00
2019-05-11T05:01:33.968Z,1576.00
2019-05-11T05:02:33.990Z,1592.00
2019-05-11T05:03:40.806Z,1636.00
2019-05-11T05:04:34.939Z,1692.00
2019-05-11T05:05:33.948Z,1724.00
2019-05-11T05:06:33.919Z,1688.00
2019-05-11T05:07:33.904Z,1660.00
2019-05-11T05:08:33.902Z,1624.00
2019-05-11T05:09:35.975Z,1596.00
2019-05-11T05:10:34.877Z,1600.00
2019-05-11T05:11:36.862Z,1652.00
2019-05-11T05:12:33.878Z,1756.00
2019-05-11T05:13:33.845Z,1908.00
2019-05-11T05:14:33.829Z,2068.00
2019-05-11T05:15:33.824Z,2208.00
2019-05-11T05:16:33.813Z,2352.00
2019-05-11T05:17:33.802Z,2500.00
2019-05-11T05:18:33.824Z,2604.00
2019-05-11T05:19:33.776Z,2664.00
2019-05-11T05:20:33.763Z,2732.00
2019-05-11T05:21:33.756Z,2772.00
2019-05-11T05:22:33.747Z,2772.00
2019-05-11T05:23:33.739Z,2704.00
2019-05-11T05:24:33.792Z,2584.00
2019-05-11T05:25:33.711Z,2432.00
2019-05-11T05:26:33.703Z,2292.00
2019-05-11T05:27:33.687Z,2208.00
2019-05-11T05:28:33.682Z,2108.00
2019-05-11T05:29:33.685Z,2072.00
2019-05-11T05:30:33.654Z,2028.00
2019-05-11T05:31:33.645Z,2104.00
2019-05-11T05:32:33.638Z,2272.00
2019-05-11T05:33:33.637Z,2480.00
2019-05-11T05:34:33.632Z,2696.00
2019-05-11T05:35:33.605Z,2900.00
2019-05-11T05:36:33.595Z,3068.00
2019-05-11T05:37:33.583Z,3192.00
2019-05-11T05:38:33.591Z,3168.00
2019-05-11T05:39:33.568Z,2988.00
2019-05-11T05:40:33.551Z,2920.00
2019-05-11T05:41:33.550Z,3024.00
2019-05-11T05:42:33.535Z,3152.00
2019-05-11T05:43:33.522Z,3288.00
2019-05-11T05:44:33.514Z,3516.00
2019-05-11T05:45:33.494Z,3828.00
2019-05-11T05:46:33.509Z,4024.00
2019-05-11T05:47:33.475Z,4132.00
2019-05-11T05:48:33.459Z,4128.00
2019-05-11T05:49:33.461Z,4000.00
2019-05-11T05:50:33.438Z,3932.00
2019-05-11T05:51:33.430Z,3896.00
2019-05-11T05:52:33.428Z,3916.00
2019-05-11T05:53:33.408Z,3868.00
2019-05-11T05:54:33.402Z,3840.00
2019-05-11T05:55:33.396Z,3536.00
2019-05-11T05:56:33.374Z,3516.00
2019-05-11T05:57:33.377Z,3640.00
2019-05-11T05:58:33.395Z,3776.00
2019-05-11T05:59:33.348Z,3696.00
2019-05-11T06:00:33.342Z,3972.00
2019-05-11T06:01:33.320Z,3820.00
2019-05-11T06:02:33.309Z,3720.00
2019-05-11T06:03:33.381Z,3848.00
2019-05-11T06:04:33.289Z,3736.00
2019-05-11T06:05:33.292Z,3668.00
2019-05-11T06:06:33.265Z,3832.00
2019-05-11T06:07:33.262Z,3868.00
2019-05-11T06:08:33.244Z,3960.00
2019-05-11T06:09:33.233Z,3988.00
2019-05-11T06:10:33.246Z,3856.00
2019-05-11T06:11:33.217Z,3740.00
2019-05-11T06:12:33.205Z,3668.00
2019-05-11T06:13:44.449Z,4260.00
2019-05-11T06:14:34.179Z,4272.00
2019-05-11T06:15:33.183Z,4348.00
2019-05-11T06:16:33.179Z,4100.00
2019-05-11T06:17:33.149Z,4644.00
2019-05-11T06:18:33.143Z,4708.00
2019-05-11T06:19:33.137Z,4780.00
2019-05-11T06:20:33.119Z,4820.00
2019-05-11T06:21:33.118Z,4780.00
2019-05-11T06:22:33.106Z,5044.00
2019-05-11T06:23:33.083Z,6088.00
2019-05-11T06:24:33.078Z,8924.00
2019-05-11T06:25:33.066Z,12140.00
2019-05-11T06:26:33.055Z,13708.00
2019-05-11T06:27:33.050Z,11236.00
2019-05-11T06:28:33.047Z,7884.00
2019-05-11T06:29:33.019Z,5916.00
2019-05-11T06:30:33.014Z,5480.00
2019-05-11T06:31:33.002Z,5764.00
2019-05-11T06:32:32.992Z,5888.00
2019-05-11T06:33:33.004Z,6244.00
2019-05-11T06:34:32.973Z,9148.00
2019-05-11T06:35:32.956Z,13524.00
2019-05-11T06:36:32.959Z,14056.00
2019-05-11T06:37:32.941Z,13228.00
2019-05-11T06:38:32.934Z,14060.00
2019-05-11T06:39:32.915Z,16384.00
2019-05-11T06:40:32.912Z,17024.00
2019-05-11T06:41:32.933Z,17344.00
2019-05-11T06:42:32.886Z,17536.00
2019-05-11T06:43:32.950Z,16768.00
2019-05-11T06:44:32.859Z,18272.00
2019-05-11T06:45:32.849Z,17696.00
2019-05-11T06:46:34.974Z,17248.00
2019-05-11T06:47:32.842Z,18144.00
2019-05-11T06:48:32.852Z,18400.00
2019-05-11T06:49:32.811Z,20672.00
2019-05-11T06:50:32.792Z,22048.00
2019-05-11T06:51:32.837Z,21056.00
2019-05-11T06:52:32.779Z,18336.00
2019-05-11T06:53:32.783Z,17888.00
2019-05-11T06:54:32.759Z,17344.00
2019-05-11T06:55:32.801Z,16288.00
2019-05-11T06:56:32.730Z,17472.00
2019-05-11T06:57:32.718Z,19424.00
2019-05-11T06:58:32.715Z,20928.00
2019-05-11T06:59:32.722Z,21184.00
2019-05-11T07:00:32.686Z,22304.00
2019-05-11T07:01:32.692Z,22848.00
2019-05-11T07:02:32.663Z,23648.00
2019-05-11T07:03:32.655Z,19808.00
2019-05-11T07:04:32.650Z,20032.00
2019-05-11T07:05:32.659Z,18848.00
2019-05-11T07:06:32.626Z,17376.00
2019-05-11T07:07:46.478Z,16704.00
2019-05-11T07:08:33.643Z,17984.00
2019-05-11T07:09:32.587Z,19904.00
2019-05-11T07:10:32.583Z,23232.00
2019-05-11T07:11:32.571Z,25856.00
2019-05-11T07:12:32.562Z,25920.00
2019-05-11T07:13:32.548Z,26624.00
2019-05-11T07:14:32.580Z,28704.00
2019-05-11T07:15:32.530Z,30272.00
2019-05-11T07:16:32.518Z,33312.00
2019-05-11T07:17:32.504Z,32384.00
2019-05-11T07:18:32.490Z,29024.00
2019-05-11T07:19:32.487Z,29408.00
2019-05-11T07:20:32.497Z,29152.00
2019-05-11T07:21:32.465Z,29824.00
2019-05-11T07:22:32.480Z,28544.00
2019-05-11T07:23:32.443Z,26912.00
2019-05-11T07:24:32.453Z,27712.00
2019-05-11T07:25:32.426Z,32640.00
2019-05-11T07:26:32.407Z,34720.00
2019-05-11T07:27:32.401Z,32960.00
2019-05-11T07:28:32.390Z,33664.00
2019-05-11T07:29:32.404Z,33856.00
2019-05-11T07:30:32.374Z,30144.00
2019-05-11T07:31:32.362Z,31680.00
2019-05-11T07:32:32.346Z,35040.00
2019-05-11T07:33:32.337Z,30688.00
2019-05-11T07:34:32.355Z,26336.00
2019-05-11T07:35:32.308Z,14320.00
2019-05-11T07:36:32.297Z,30720.00
2019-05-11T07:37:32.292Z,33952.00
2019-05-11T07:38:32.281Z,33152.00
2019-05-11T07:39:32.265Z,31200.00
2019-05-11T07:40:32.297Z,32608.00
2019-05-11T07:41:32.278Z,37888.00
2019-05-11T07:42:32.239Z,39648.00
2019-05-11T07:43:32.228Z,37664.00
2019-05-11T07:44:38.356Z,35264.00
2019-05-11T07:45:33.209Z,32768.00
2019-05-11T07:46:32.218Z,39616.00
2019-05-11T07:47:32.185Z,43456.00
2019-05-11T07:48:32.169Z,45088.00
2019-05-11T07:49:32.159Z,42912.00
2019-05-11T07:50:32.154Z,41376.00
2019-05-11T07:51:32.140Z,42560.00
2019-05-11T07:52:32.156Z,44096.00
2019-05-11T07:53:32.116Z,40480.00
2019-05-11T07:54:32.105Z,38176.00
2019-05-11T07:55:32.095Z,41440.00
2019-05-11T07:56:32.106Z,44608.00
2019-05-11T07:57:32.082Z,39520.00
2019-05-11T07:58:32.076Z,39424.00
2019-05-11T07:59:32.083Z,34304.00
2019-05-11T08:00:32.075Z,24832.00
2019-05-11T08:01:32.036Z,31616.00
2019-05-11T08:02:32.469Z,42816.00
2019-05-11T08:03:32.019Z,46400.00
2019-05-11T08:04:32.025Z,45760.00
2019-05-11T08:05:31.996Z,43936.00
2019-05-11T08:06:32.007Z,43808.00
2019-05-11T08:07:31.992Z,47968.00
2019-05-11T08:08:31.958Z,47424.00
2019-05-11T08:09:31.957Z,44896.00
2019-05-11T08:10:31.942Z,43808.00
2019-05-11T08:11:31.933Z,49632.00
2019-05-11T08:13:40.712Z,55168.00
2019-05-11T08:14:56.480Z,48224.00
2019-05-11T08:15:41.658Z,15832.00
2019-05-11T08:16:40.652Z,18336.00
2019-05-11T08:17:40.638Z,13396.00
2019-05-11T08:18:40.660Z,11112.00
2019-05-11T08:19:40.617Z,10248.00
2019-05-11T08:20:40.605Z,58080.00
2019-05-11T08:21:40.589Z,11864.00
2019-05-11T08:22:40.584Z,10256.00
2019-05-11T08:23:40.566Z,20096.00
2019-05-11T08:24:40.591Z,53856.00
2019-05-11T08:25:40.579Z,8784.00
2019-05-11T08:26:40.540Z,7664.00
2019-05-11T08:27:40.527Z,7092.00
2019-05-11T08:28:40.519Z,6892.00
2019-05-11T08:29:40.503Z,6880.00
2019-05-11T08:30:40.499Z,7084.00
2019-05-11T08:31:40.525Z,7432.00
2019-05-11T08:32:40.476Z,7604.00
2019-05-11T08:33:40.463Z,8000.00
2019-05-11T08:34:40.453Z,8656.00
2019-05-11T08:35:40.441Z,9928.00
2019-05-11T08:36:40.426Z,12476.00
2019-05-11T08:37:40.437Z,63296.00
2019-05-11T08:38:40.409Z,16608.00
2019-05-11T08:39:40.393Z,14856.00
2019-05-11T08:40:40.391Z,44000.00
2019-05-11T08:41:40.379Z,26272.00
2019-05-11T08:42:40.397Z,18912.00
2019-05-11T08:43:40.350Z,16704.00
2019-05-11T08:44:40.342Z,12228.00
2019-05-11T08:45:40.363Z,10148.00
2019-05-11T08:46:40.323Z,9592.00
2019-05-11T08:47:40.314Z,10884.00
2019-05-11T08:48:40.301Z,14076.00
2019-05-11T08:49:40.285Z,11772.00
2019-05-11T08:50:40.283Z,13892.00
2019-05-11T08:51:40.297Z,13104.00
2019-05-11T08:52:40.256Z,16352.00
2019-05-11T08:53:40.247Z,12884.00
2019-05-11T08:54:40.239Z,10876.00
2019-05-11T08:55:40.220Z,10328.00
2019-05-11T08:56:40.233Z,10104.00
2019-05-11T08:57:40.203Z,11668.00
2019-05-11T08:58:40.213Z,12092.00
2019-05-11T08:59:40.182Z,12304.00
2019-05-11T09:00:40.188Z,11896.00
2019-05-11T09:01:40.182Z,16704.00
2019-05-11T09:02:40.149Z,11100.00
2019-05-11T09:03:40.153Z,10496.00
2019-05-11T09:04:42.118Z,10336.00
2019-05-11T09:05:40.122Z,13040.00
2019-05-11T09:06:40.099Z,19040.00
2019-05-11T09:07:40.088Z,17728.00
2019-05-11T09:08:40.110Z,8688.00
2019-05-11T09:09:40.066Z,7300.00
2019-05-11T09:10:40.057Z,6812.00
2019-05-11T09:11:40.072Z,7052.00
2019-05-11T09:12:40.034Z,7428.00
2019-05-11T09:13:40.030Z,7436.00
2019-05-11T09:14:40.016Z,7140.00
2019-05-11T09:15:40.903Z,7088.00
2019-05-11T09:16:40.016Z,7120.00
2019-05-11T09:17:40.009Z,7308.00
2019-05-11T09:18:39.970Z,7580.00
2019-05-11T09:20:48.818Z,8916.00
2019-05-11T09:21:48.723Z,11752.00
2019-05-11T09:22:48.757Z,13440.00
2019-05-11T09:23:48.819Z,14964.00
2019-05-11T09:24:48.976Z,13504.00
2019-05-11T09:25:49.412Z,15640.00
2019-05-11T09:26:50.093Z,12704.00
2019-05-11T09:27:49.691Z,11024.00
2019-05-11T09:28:55.130Z,11516.00
2019-05-11T09:29:50.033Z,16768.00
2019-05-11T09:30:50.628Z,16384.00
2019-05-11T09:31:48.851Z,11760.00
2019-05-11T09:32:50.035Z,10708.00
2019-05-11T09:33:48.772Z,9248.00
2019-05-11T09:34:48.665Z,8316.00
2019-05-11T09:35:53.122Z,7696.00
2019-05-11T09:36:49.574Z,7400.00
2019-05-11T09:37:48.662Z,6984.00
2019-05-11T09:38:49.158Z,7060.00
2019-05-11T09:39:48.718Z,7228.00
2019-05-11T09:40:48.696Z,7456.00
2019-05-11T09:41:48.911Z,7776.00
2019-05-11T09:42:48.632Z,8128.00
2019-05-11T09:43:48.535Z,8312.00
2019-05-11T09:44:48.691Z,8712.00
2019-05-11T09:45:51.134Z,9340.00
2019-05-11T09:46:48.442Z,10284.00
2019-05-11T09:47:48.430Z,13384.00
2019-05-11T09:48:48.582Z,12224.00
2019-05-11T09:49:50.991Z,9404.00
2019-05-11T09:50:48.401Z,10404.00
2019-05-11T09:51:48.463Z,10164.00
2019-05-11T09:52:49.140Z,9724.00
2019-05-11T09:53:48.582Z,9360.00
2019-05-11T09:54:48.782Z,9508.00
2019-05-11T09:55:48.357Z,9432.00
2019-05-11T09:56:48.774Z,9508.00
2019-05-11T09:57:48.772Z,9452.00
2019-05-11T09:58:48.315Z,10076.00
2019-05-11T09:59:48.302Z,10252.00
2019-05-11T10:00:48.295Z,10440.00
2019-05-11T10:01:48.479Z,10024.00
2019-05-11T10:02:48.860Z,9004.00
2019-05-11T10:03:48.439Z,7944.00
2019-05-11T10:04:48.468Z,7324.00
2019-05-11T10:05:48.772Z,6956.00
2019-05-11T10:06:48.304Z,6920.00
2019-05-11T10:07:48.614Z,6864.00
2019-05-11T10:08:48.810Z,6812.00
2019-05-11T10:09:48.193Z,6876.00
2019-05-11T10:10:48.810Z,7056.00
2019-05-11T10:11:48.195Z,7352.00
2019-05-11T10:12:48.955Z,7708.00
2019-05-11T10:13:48.146Z,8272.00
2019-05-11T10:14:48.662Z,8812.00
2019-05-11T10:16:00.919Z,8780.00
2019-05-11T10:16:49.316Z,8332.00
2019-05-11T10:17:48.410Z,8348.00
2019-05-11T10:18:49.182Z,8020.00
2019-05-11T10:19:49.689Z,7816.00
2019-05-11T10:20:48.231Z,7728.00
2019-05-11T10:21:48.695Z,8024.00
2019-05-11T10:22:48.765Z,8040.00
2019-05-11T10:23:49.034Z,7568.00
2019-05-11T10:24:48.027Z,7576.00
2019-05-11T10:25:48.210Z,7660.00
2019-05-11T10:26:48.650Z,7764.00
2019-05-11T10:27:48.892Z,7748.00
2019-05-11T10:28:48.402Z,7724.00
2019-05-11T10:29:48.524Z,7520.00
2019-05-11T10:30:48.720Z,7180.00
2019-05-11T10:31:48.212Z,6740.00
2019-05-11T10:32:48.498Z,6280.00
2019-05-11T10:33:48.947Z,5928.00
2019-05-11T10:34:47.961Z,5744.00
2019-05-11T10:35:48.431Z,5720.00
2019-05-11T10:36:48.591Z,5840.00
2019-05-11T10:37:47.984Z,6076.00
2019-05-11T10:38:48.724Z,6464.00
2019-05-11T10:39:48.853Z,6640.00
2019-05-11T10:40:48.161Z,6820.00
2019-05-11T10:41:48.134Z,7196.00
2019-05-11T10:42:48.504Z,7320.00
2019-05-11T10:43:48.901Z,7536.00
2019-05-11T10:44:48.015Z,7852.00
2019-05-11T10:45:48.473Z,8020.00
2019-05-11T10:46:48.388Z,7960.00
2019-05-11T10:47:48.917Z,7684.00
2019-05-11T10:48:48.406Z,7844.00
2019-05-11T10:49:48.504Z,8088.00
2019-05-11T10:50:48.363Z,8144.00
2019-05-11T10:51:48.661Z,8120.00
2019-05-11T10:52:48.419Z,7712.00
2019-05-11T10:53:51.689Z,7092.00
2019-05-11T10:54:47.972Z,6756.00
2019-05-11T10:55:47.993Z,6712.00
2019-05-11T10:56:48.229Z,6536.00
2019-05-11T10:57:48.754Z,6468.00
2019-05-11T10:58:48.356Z,6376.00
2019-05-11T10:59:48.906Z,6408.00
2019-05-11T11:00:48.067Z,6452.00
2019-05-11T11:01:48.390Z,6432.00
2019-05-11T11:02:47.815Z,6268.00
2019-05-11T11:03:48.431Z,6068.00
2019-05-11T11:04:48.538Z,5888.00
2019-05-11T11:05:48.748Z,5760.00
2019-05-11T11:06:48.554Z,5712.00
2019-05-11T11:07:48.436Z,5720.00
2019-05-11T11:08:48.597Z,5860.00
2019-05-11T11:09:49.039Z,6048.00
2019-05-11T11:10:48.349Z,6232.00
2019-05-11T11:11:48.877Z,6156.00
2019-05-11T11:12:49.006Z,5976.00
2019-05-11T11:13:48.443Z,5776.00
2019-05-11T11:14:48.198Z,5640.00
2019-05-11T11:15:48.468Z,5504.00
2019-05-11T11:16:47.991Z,5412.00
2019-05-11T11:17:48.704Z,5328.00
2019-05-11T11:18:48.662Z,5152.00
2019-05-11T11:19:48.623Z,5052.00
2019-05-11T11:20:48.844Z,4932.00
2019-05-11T11:21:48.744Z,4808.00
2019-05-11T11:22:48.281Z,4980.00
2019-05-11T11:23:47.990Z,5188.00
2019-05-11T11:24:48.151Z,5444.00
2019-05-11T11:25:48.198Z,5636.00
2019-05-11T11:26:48.598Z,5728.00
2019-05-11T11:27:48.640Z,5832.00
2019-05-11T11:28:47.869Z,5840.00
2019-05-11T11:29:47.658Z,5720.00
2019-05-11T11:30:48.046Z,5524.00
2019-05-11T11:31:48.209Z,5396.00
2019-05-11T11:32:48.285Z,5276.00
2019-05-11T11:33:48.995Z,5076.00
2019-05-11T11:34:48.480Z,4928.00
2019-05-11T11:35:47.750Z,4800.00
2019-05-11T11:36:48.116Z,4556.00
2019-05-11T11:37:47.850Z,4316.00
2019-05-11T11:38:47.864Z,4212.00
2019-05-11T11:39:47.691Z,4168.00
2019-05-11T11:40:48.139Z,4216.00
2019-05-11T11:41:48.528Z,4312.00
2019-05-11T11:42:47.816Z,4440.00
2019-05-11T11:43:48.414Z,4592.00
2019-05-11T11:44:48.402Z,4732.00
2019-05-11T11:45:48.502Z,4716.00
2019-05-11T11:46:54.591Z,4736.00
2019-05-11T11:47:49.331Z,4612.00
2019-05-11T11:48:48.816Z,4520.00
2019-05-11T11:49:47.548Z,4528.00
2019-05-11T11:50:48.049Z,4580.00
2019-05-11T11:51:48.465Z,4740.00
2019-05-11T11:52:47.684Z,4844.00
2019-05-11T11:53:47.769Z,4960.00
2019-05-11T11:54:47.877Z,5104.00
2019-05-11T11:55:48.230Z,5216.00
2019-05-11T11:56:48.557Z,5396.00
2019-05-11T11:57:48.968Z,5624.00
2019-05-11T11:58:48.857Z,5628.00
2019-05-11T11:59:48.087Z,5516.00
2019-05-11T12:00:48.238Z,5412.00
2019-05-11T12:01:48.766Z,5256.00
2019-05-11T12:02:48.711Z,5088.00
2019-05-11T12:03:48.746Z,5176.00
2019-05-11T12:04:48.588Z,5212.00
2019-05-11T12:05:47.747Z,5224.00
2019-05-11T12:06:48.832Z,5168.00
2019-05-11T12:07:48.927Z,5024.00
2019-05-11T12:08:49.343Z,4848.00
2019-05-11T12:09:48.387Z,4772.00
2019-05-11T12:10:48.433Z,4748.00
2019-05-11T12:11:48.643Z,4772.00
2019-05-11T12:12:47.581Z,4852.00
2019-05-11T12:13:47.564Z,4992.00
2019-05-11T12:14:47.980Z,5160.00
2019-05-11T12:15:48.204Z,5284.00
2019-05-11T12:16:47.921Z,5268.00
2019-05-11T12:17:48.311Z,5280.00
2019-05-11T12:18:48.736Z,5340.00
2019-05-11T12:19:47.831Z,5504.00
2019-05-11T12:20:48.053Z,5668.00
2019-05-11T12:21:48.394Z,5884.00
2019-05-11T12:22:47.607Z,6060.00